sensor_id;sensor_type;location;lat;lon;timestamp;pressure;altitude;pressure_sealevel;temperature;humidity
77110;BME280;66062;52.464;16.922;2023-07-31T00:00:32;100120.94;;;17.52;94.29
77110;BME280;66062;52.464;16.922;2023-07-31T00:02:57;100121.34;;;17.49;94.78
77110;BME280;66062;52.464;16.922;2023-07-31T00:05:23;100122.78;;;17.45;94.48
77110;BME280;66062;52.464;16.922;2023-07-31T00:07:48;100124.22;;;17.41;95.45
77110;BME280;66062;52.464;16.922;2023-07-31T00:10:13;100112.84;;;17.46;94.08
77110;BME280;66062;52.464;16.922;2023-07-31T00:12:42;100104.94;;;17.44;94.26
77110;BME280;66062;52.464;16.922;2023-07-31T00:15:08;100116.50;;;17.38;94.24
77110;BME280;66062;52.464;16.922;2023-07-31T00:17:33;100113.78;;;17.38;94.50
77110;BME280;66062;52.464;16.922;2023-07-31T00:19:59;100113.78;;;17.32;94.73
77110;BME280;66062;52.464;16.922;2023-07-31T00:22:24;100116.91;;;17.35;94.64
77110;BME280;66062;52.464;16.922;2023-07-31T00:24:50;100121.22;;;17.30;94.88
77110;BME280;66062;52.464;16.922;2023-07-31T00:27:15;100130.72;;;17.26;94.86
77110;BME280;66062;52.464;16.922;2023-07-31T00:29:41;100123.00;;;17.23;95.64
77110;BME280;66062;52.464;16.922;2023-07-31T00:32:06;100128.41;;;17.23;95.26
77110;BME280;66062;52.464;16.922;2023-07-31T00:34:32;100132.72;;;17.17;95.33
77110;BME280;66062;52.464;16.922;2023-07-31T00:36:57;100127.53;;;17.16;95.14
77110;BME280;66062;52.464;16.922;2023-07-31T00:39:22;100134.59;;;17.17;95.53
77110;BME280;66062;52.464;16.922;2023-07-31T00:41:48;100130.81;;;17.11;95.48
77110;BME280;66062;52.464;16.922;2023-07-31T00:44:13;100129.38;;;17.15;95.68
77110;BME280;66062;52.464;16.922;2023-07-31T00:46:39;100139.53;;;17.13;95.53
77110;BME280;66062;52.464;16.922;2023-07-31T00:49:05;100134.47;;;17.03;96.00
77110;BME280;66062;52.464;16.922;2023-07-31T00:51:30;100124.84;;;16.94;96.81
77110;BME280;66062;52.464;16.922;2023-07-31T00:53:56;100121.75;;;16.97;96.70
77110;BME280;66062;52.464;16.922;2023-07-31T00:56:22;100124.84;;;16.94;96.97
77110;BME280;66062;52.464;16.922;2023-07-31T00:58:48;100125.25;;;16.91;97.16
77110;BME280;66062;52.464;16.922;2023-07-31T01:01:13;100119.84;;;16.91;97.37
77110;BME280;66062;52.464;16.922;2023-07-31T01:03:39;100120.66;;;16.92;97.15
77110;BME280;66062;52.464;16.922;2023-07-31T01:06:14;100124.31;;;16.84;98.08
77110;BME280;66062;52.464;16.922;2023-07-31T01:08:42;100121.81;;;16.83;98.26
77110;BME280;66062;52.464;16.922;2023-07-31T01:11:19;100121.38;;;16.79;98.50
77110;BME280;66062;52.464;16.922;2023-07-31T01:13:47;100123.03;;;16.80;98.30
77110;BME280;66062;52.464;16.922;2023-07-31T01:16:12;100121.28;;;16.73;98.88
77110;BME280;66062;52.464;16.922;2023-07-31T01:18:38;100119.56;;;16.65;99.03
77110;BME280;66062;52.464;16.922;2023-07-31T01:21:59;100119.63;;;16.57;99.96
77110;BME280;66062;52.464;16.922;2023-07-31T01:24:15;100123.28;;;16.64;99.26
77110;BME280;66062;52.464;16.922;2023-07-31T01:26:49;100129.03;;;16.61;99.07
77110;BME280;66062;52.464;16.922;2023-07-31T01:29:24;100123.03;;;16.59;98.85
77110;BME280;66062;52.464;16.922;2023-07-31T01:31:53;100120.66;;;16.56;99.37
77110;BME280;66062;52.464;16.922;2023-07-31T01:34:21;100127.66;;;16.65;98.45
77110;BME280;66062;52.464;16.922;2023-07-31T01:36:47;100120.16;;;16.60;98.58
77110;BME280;66062;52.464;16.922;2023-07-31T01:39:12;100123.75;;;16.53;98.68
77110;BME280;66062;52.464;16.922;2023-07-31T01:41:38;100118.19;;;16.54;98.69
77110;BME280;66062;52.464;16.922;2023-07-31T01:44:03;100118.53;;;16.51;98.46
77110;BME280;66062;52.464;16.922;2023-07-31T01:46:29;100120.03;;;16.54;98.19
77110;BME280;66062;52.464;16.922;2023-07-31T01:48:54;100110.28;;;16.53;98.14
77110;BME280;66062;52.464;16.922;2023-07-31T01:51:20;100114.38;;;16.49;98.00
77110;BME280;66062;52.464;16.922;2023-07-31T01:53:45;100106.88;;;16.44;97.70
77110;BME280;66062;52.464;16.922;2023-07-31T01:56:10;100107.31;;;16.48;97.76
77110;BME280;66062;52.464;16.922;2023-07-31T01:58:36;100114.75;;;16.46;97.46
77110;BME280;66062;52.464;16.922;2023-07-31T02:01:01;100122.56;;;16.41;97.47
77110;BME280;66062;52.464;16.922;2023-07-31T02:03:27;100121.81;;;16.47;97.46
77110;BME280;66062;52.464;16.922;2023-07-31T02:05:54;100116.06;;;16.50;96.84
77110;BME280;66062;52.464;16.922;2023-07-31T02:08:20;100116.41;;;16.47;96.73
77110;BME280;66062;52.464;16.922;2023-07-31T02:10:45;100117.34;;;16.54;96.65
77110;BME280;66062;52.464;16.922;2023-07-31T02:13:10;100116.31;;;16.55;96.24
77110;BME280;66062;52.464;16.922;2023-07-31T02:15:36;100115.97;;;16.43;96.82
77110;BME280;66062;52.464;16.922;2023-07-31T02:18:01;100118.41;;;16.38;97.78
77110;BME280;66062;52.464;16.922;2023-07-31T02:20:26;100111.34;;;16.37;97.28
77110;BME280;66062;52.464;16.922;2023-07-31T02:22:52;100110.72;;;16.35;97.46
77110;BME280;66062;52.464;16.922;2023-07-31T02:25:17;100112.00;;;16.39;97.63
77110;BME280;66062;52.464;16.922;2023-07-31T02:27:43;100115.81;;;16.30;97.89
77110;BME280;66062;52.464;16.922;2023-07-31T02:30:08;100115.28;;;16.20;98.52
77110;BME280;66062;52.464;16.922;2023-07-31T02:32:34;100124.84;;;16.22;98.16
77110;BME280;66062;52.464;16.922;2023-07-31T02:34:59;100116.19;;;16.27;98.29
77110;BME280;66062;52.464;16.922;2023-07-31T02:37:25;100111.25;;;16.31;97.78
77110;BME280;66062;52.464;16.922;2023-07-31T02:39:50;100116.75;;;16.22;99.40
77110;BME280;66062;52.464;16.922;2023-07-31T02:42:16;100117.31;;;16.18;99.23
77110;BME280;66062;52.464;16.922;2023-07-31T02:44:42;100114.47;;;16.19;99.72
77110;BME280;66062;52.464;16.922;2023-07-31T02:47:07;100115.09;;;16.07;100.00
77110;BME280;66062;52.464;16.922;2023-07-31T02:49:32;100109.09;;;16.05;100.00
77110;BME280;66062;52.464;16.922;2023-07-31T02:51:58;100122.25;;;16.14;99.64
77110;BME280;66062;52.464;16.922;2023-07-31T02:54:23;100120.88;;;16.04;100.00
77110;BME280;66062;52.464;16.922;2023-07-31T02:56:49;100123.75;;;16.02;100.00
77110;BME280;66062;52.464;16.922;2023-07-31T02:59:15;100116.53;;;15.88;100.00
77110;BME280;66062;52.464;16.922;2023-07-31T03:01:40;100120.78;;;15.82;100.00
77110;BME280;66062;52.464;16.922;2023-07-31T03:04:06;100119.28;;;15.80;100.00
77110;BME280;66062;52.464;16.922;2023-07-31T03:06:32;100121.06;;;15.73;100.00
77110;BME280;66062;52.464;16.922;2023-07-31T03:08:57;100120.97;;;15.66;100.00
77110;BME280;66062;52.464;16.922;2023-07-31T03:11:23;100124.88;;;15.64;100.00
77110;BME280;66062;52.464;16.922;2023-07-31T03:13:48;100130.88;;;15.51;100.00
77110;BME280;66062;52.464;16.922;2023-07-31T03:16:13;100126.69;;;15.49;100.00
77110;BME280;66062;52.464;16.922;2023-07-31T03:18:39;100118.53;;;15.57;100.00
77110;BME280;66062;52.464;16.922;2023-07-31T03:21:04;100124.06;;;15.40;100.00
77110;BME280;66062;52.464;16.922;2023-07-31T03:23:30;100118.63;;;15.49;100.00
77110;BME280;66062;52.464;16.922;2023-07-31T03:26:05;100124.94;;;15.56;100.00
77110;BME280;66062;52.464;16.922;2023-07-31T03:28:31;100122.53;;;15.61;100.00
77110;BME280;66062;52.464;16.922;2023-07-31T03:30:56;100111.97;;;15.59;100.00
77110;BME280;66062;52.464;16.922;2023-07-31T03:33:22;100117.81;;;15.63;100.00
77110;BME280;66062;52.464;16.922;2023-07-31T03:35:47;100110.75;;;15.62;100.00
77110;BME280;66062;52.464;16.922;2023-07-31T03:38:13;100119.22;;;15.59;100.00
77110;BME280;66062;52.464;16.922;2023-07-31T03:40:38;100112.31;;;15.56;100.00
77110;BME280;66062;52.464;16.922;2023-07-31T03:43:04;100116.53;;;15.59;100.00
77110;BME280;66062;52.464;16.922;2023-07-31T03:45:30;100119.66;;;15.62;100.00
77110;BME280;66062;52.464;16.922;2023-07-31T03:47:55;100125.16;;;15.69;100.00
77110;BME280;66062;52.464;16.922;2023-07-31T03:50:21;100124.31;;;15.68;100.00
77110;BME280;66062;52.464;16.922;2023-07-31T03:52:46;100113.91;;;15.80;100.00
77110;BME280;66062;52.464;16.922;2023-07-31T03:55:12;100127.34;;;15.80;100.00
77110;BME280;66062;52.464;16.922;2023-07-31T03:57:37;100111.69;;;15.83;100.00
77110;BME280;66062;52.464;16.922;2023-07-31T04:00:03;100116.59;;;15.80;100.00
77110;BME280;66062;52.464;16.922;2023-07-31T04:02:28;100114.66;;;15.89;100.00
77110;BME280;66062;52.464;16.922;2023-07-31T04:04:54;100120.63;;;15.84;100.00
77110;BME280;66062;52.464;16.922;2023-07-31T04:07:19;100133.78;;;15.79;100.00
77110;BME280;66062;52.464;16.922;2023-07-31T04:09:45;100130.59;;;15.75;100.00
77110;BME280;66062;52.464;16.922;2023-07-31T04:12:10;100131.72;;;15.81;100.00
77110;BME280;66062;52.464;16.922;2023-07-31T04:14:35;100118.38;;;15.88;100.00
77110;BME280;66062;52.464;16.922;2023-07-31T04:17:01;100120.41;;;16.00;100.00
77110;BME280;66062;52.464;16.922;2023-07-31T04:19:26;100121.06;;;16.02;100.00
77110;BME280;66062;52.464;16.922;2023-07-31T04:21:51;100119.19;;;16.03;100.00
77110;BME280;66062;52.464;16.922;2023-07-31T04:24:17;100127.91;;;15.90;100.00
77110;BME280;66062;52.464;16.922;2023-07-31T04:26:49;100116.97;;;15.92;100.00
77110;BME280;66062;52.464;16.922;2023-07-31T04:29:15;100127.28;;;15.59;100.00
77110;BME280;66062;52.464;16.922;2023-07-31T04:31:41;100113.44;;;15.76;100.00
77110;BME280;66062;52.464;16.922;2023-07-31T04:34:06;100119.66;;;15.92;100.00
77110;BME280;66062;52.464;16.922;2023-07-31T04:36:33;100116.22;;;15.98;100.00
77110;BME280;66062;52.464;16.922;2023-07-31T04:38:58;100122.63;;;16.11;100.00
77110;BME280;66062;52.464;16.922;2023-07-31T04:41:24;100124.13;;;16.14;100.00
77110;BME280;66062;52.464;16.922;2023-07-31T04:43:49;100121.31;;;16.07;100.00
77110;BME280;66062;52.464;16.922;2023-07-31T04:46:15;100125.59;;;15.72;100.00
77110;BME280;66062;52.464;16.922;2023-07-31T04:48:40;100117.53;;;16.02;100.00
77110;BME280;66062;52.464;16.922;2023-07-31T04:51:06;100114.91;;;16.23;100.00
77110;BME280;66062;52.464;16.922;2023-07-31T04:53:31;100108.28;;;16.25;100.00
77110;BME280;66062;52.464;16.922;2023-07-31T04:55:56;100120.44;;;16.36;100.00
77110;BME280;66062;52.464;16.922;2023-07-31T04:58:22;100120.91;;;16.40;100.00
77110;BME280;66062;52.464;16.922;2023-07-31T05:00:47;100113.72;;;16.47;100.00
77110;BME280;66062;52.464;16.922;2023-07-31T05:03:12;100118.22;;;16.40;100.00
77110;BME280;66062;52.464;16.922;2023-07-31T05:05:39;100115.88;;;16.37;100.00
77110;BME280;66062;52.464;16.922;2023-07-31T05:08:04;100115.41;;;16.48;100.00
77110;BME280;66062;52.464;16.922;2023-07-31T05:10:30;100120.31;;;16.59;100.00
77110;BME280;66062;52.464;16.922;2023-07-31T05:12:55;100111.56;;;16.57;100.00
77110;BME280;66062;52.464;16.922;2023-07-31T05:15:20;100111.47;;;16.29;100.00
77110;BME280;66062;52.464;16.922;2023-07-31T05:17:46;100105.84;;;16.45;100.00
77110;BME280;66062;52.464;16.922;2023-07-31T05:20:11;100105.50;;;16.34;100.00
77110;BME280;66062;52.464;16.922;2023-07-31T05:22:38;100101.41;;;16.38;100.00
77110;BME280;66062;52.464;16.922;2023-07-31T05:25:04;100108.78;;;16.65;100.00
77110;BME280;66062;52.464;16.922;2023-07-31T05:27:29;100110.88;;;16.34;100.00
77110;BME280;66062;52.464;16.922;2023-07-31T05:29:55;100109.09;;;16.41;100.00
77110;BME280;66062;52.464;16.922;2023-07-31T05:32:20;100101.41;;;16.38;100.00
77110;BME280;66062;52.464;16.922;2023-07-31T05:34:45;100102.16;;;16.32;100.00
77110;BME280;66062;52.464;16.922;2023-07-31T05:37:11;100102.81;;;16.34;100.00
77110;BME280;66062;52.464;16.922;2023-07-31T05:39:37;100094.88;;;16.47;99.89
77110;BME280;66062;52.464;16.922;2023-07-31T05:42:03;100103.59;;;16.49;99.06
77110;BME280;66062;52.464;16.922;2023-07-31T05:44:28;100102.16;;;17.10;95.50
77110;BME280;66062;52.464;16.922;2023-07-31T05:46:54;100091.38;;;17.10;93.88
77110;BME280;66062;52.464;16.922;2023-07-31T05:49:19;100094.31;;;17.43;92.29
77110;BME280;66062;52.464;16.922;2023-07-31T05:51:45;100102.22;;;17.17;92.78
77110;BME280;66062;52.464;16.922;2023-07-31T05:54:10;100093.09;;;17.18;92.65
77110;BME280;66062;52.464;16.922;2023-07-31T05:56:35;100091.59;;;17.64;90.24
77110;BME280;66062;52.464;16.922;2023-07-31T05:59:01;100093.66;;;17.97;88.13
77110;BME280;66062;52.464;16.922;2023-07-31T06:01:28;100088.38;;;17.54;89.48
77110;BME280;66062;52.464;16.922;2023-07-31T06:03:53;100090.53;;;18.00;87.29
77110;BME280;66062;52.464;16.922;2023-07-31T06:06:18;100089.59;;;18.20;85.33
77110;BME280;66062;52.464;16.922;2023-07-31T06:08:44;100086.47;;;17.76;88.18
77110;BME280;66062;52.464;16.922;2023-07-31T06:11:09;100097.72;;;17.79;87.52
77110;BME280;66062;52.464;16.922;2023-07-31T06:13:35;100095.72;;;17.60;88.42
77110;BME280;66062;52.464;16.922;2023-07-31T06:16:01;100087.97;;;18.26;86.23
77110;BME280;66062;52.464;16.922;2023-07-31T06:18:31;100082.97;;;18.29;85.39
77110;BME280;66062;52.464;16.922;2023-07-31T06:20:56;100086.72;;;18.22;84.68
77110;BME280;66062;52.464;16.922;2023-07-31T06:23:22;100083.03;;;18.49;83.58
77110;BME280;66062;52.464;16.922;2023-07-31T06:25:47;100081.78;;;18.45;83.91
77110;BME280;66062;52.464;16.922;2023-07-31T06:28:12;100078.97;;;18.79;81.20
77110;BME280;66062;52.464;16.922;2023-07-31T06:30:38;100074.00;;;18.96;80.61
77110;BME280;66062;52.464;16.922;2023-07-31T06:33:03;100082.72;;;18.78;80.50
77110;BME280;66062;52.464;16.922;2023-07-31T06:35:28;100071.06;;;18.85;80.71
77110;BME280;66062;52.464;16.922;2023-07-31T06:37:54;100067.31;;;18.86;82.17
77110;BME280;66062;52.464;16.922;2023-07-31T06:40:19;100070.22;;;19.70;77.72
77110;BME280;66062;52.464;16.922;2023-07-31T06:42:45;100065.50;;;20.10;76.38
77110;BME280;66062;52.464;16.922;2023-07-31T06:45:10;100061.44;;;20.32;73.68
77110;BME280;66062;52.464;16.922;2023-07-31T06:47:36;100071.25;;;20.33;73.38
77110;BME280;66062;52.464;16.922;2023-07-31T06:50:01;100070.09;;;20.02;75.07
77110;BME280;66062;52.464;16.922;2023-07-31T06:52:27;100065.25;;;19.47;76.92
77110;BME280;66062;52.464;16.922;2023-07-31T06:55:22;100070.22;;;19.30;77.51
77110;BME280;66062;52.464;16.922;2023-07-31T06:57:49;100076.09;;;19.07;78.38
77110;BME280;66062;52.464;16.922;2023-07-31T07:00:15;100070.25;;;18.77;80.16
77110;BME280;66062;52.464;16.922;2023-07-31T07:02:40;100075.22;;;18.80;80.04
77110;BME280;66062;52.464;16.922;2023-07-31T07:05:06;100072.94;;;18.91;79.37
77110;BME280;66062;52.464;16.922;2023-07-31T07:07:32;100075.66;;;18.84;79.50
77110;BME280;66062;52.464;16.922;2023-07-31T07:09:58;100082.94;;;18.77;80.32
77110;BME280;66062;52.464;16.922;2023-07-31T07:12:25;100070.28;;;19.04;79.76
77110;BME280;66062;52.464;16.922;2023-07-31T07:14:50;100066.94;;;19.08;79.26
77110;BME280;66062;52.464;16.922;2023-07-31T07:17:18;100058.16;;;19.52;75.76
77110;BME280;66062;52.464;16.922;2023-07-31T07:19:43;100071.69;;;19.59;75.69
77110;BME280;66062;52.464;16.922;2023-07-31T07:22:09;100063.38;;;19.60;75.85
77110;BME280;66062;52.464;16.922;2023-07-31T07:24:35;100075.94;;;20.06;73.95
77110;BME280;66062;52.464;16.922;2023-07-31T07:27:00;100071.69;;;19.39;76.77
77110;BME280;66062;52.464;16.922;2023-07-31T07:29:26;100082.09;;;18.76;80.09
77110;BME280;66062;52.464;16.922;2023-07-31T07:31:51;100074.00;;;19.55;76.69
77110;BME280;66062;52.464;16.922;2023-07-31T07:34:17;100070.47;;;19.22;77.86
77110;BME280;66062;52.464;16.922;2023-07-31T07:36:42;100074.81;;;19.16;78.36
77110;BME280;66062;52.464;16.922;2023-07-31T07:39:09;100068.78;;;19.21;77.77
77110;BME280;66062;52.464;16.922;2023-07-31T07:41:35;100079.41;;;19.16;78.22
77110;BME280;66062;52.464;16.922;2023-07-31T07:44:00;100076.31;;;19.45;78.01
77110;BME280;66062;52.464;16.922;2023-07-31T07:46:25;100083.59;;;18.99;79.08
77110;BME280;66062;52.464;16.922;2023-07-31T07:48:51;100090.22;;;19.16;77.93
77110;BME280;66062;52.464;16.922;2023-07-31T07:51:16;100080.66;;;19.27;76.08
77110;BME280;66062;52.464;16.922;2023-07-31T07:53:41;100089.38;;;18.76;78.88
77110;BME280;66062;52.464;16.922;2023-07-31T07:56:07;100086.66;;;18.76;78.68
77110;BME280;66062;52.464;16.922;2023-07-31T07:58:32;100094.13;;;18.61;80.22
77110;BME280;66062;52.464;16.922;2023-07-31T08:00:57;100088.84;;;18.46;81.17
77110;BME280;66062;52.464;16.922;2023-07-31T08:03:23;100084.38;;;18.73;78.78
77110;BME280;66062;52.464;16.922;2023-07-31T08:05:48;100088.53;;;18.75;78.43
77110;BME280;66062;52.464;16.922;2023-07-31T08:08:14;100091.84;;;18.64;79.16
77110;BME280;66062;52.464;16.922;2023-07-31T08:10:41;100092.72;;;18.78;78.73
77110;BME280;66062;52.464;16.922;2023-07-31T08:13:06;100093.00;;;18.42;80.55
77110;BME280;66062;52.464;16.922;2023-07-31T08:15:32;100086.91;;;18.94;80.26
77110;BME280;66062;52.464;16.922;2023-07-31T08:17:57;100077.97;;;19.46;76.00
77110;BME280;66062;52.464;16.922;2023-07-31T08:20:22;100077.13;;;19.59;74.76
77110;BME280;66062;52.464;16.922;2023-07-31T08:22:48;100080.41;;;18.62;78.23
77110;BME280;66062;52.464;16.922;2023-07-31T08:25:14;100084.41;;;19.12;77.86
77110;BME280;66062;52.464;16.922;2023-07-31T08:27:43;100079.19;;;19.44;74.29
77110;BME280;66062;52.464;16.922;2023-07-31T08:30:08;100080.41;;;19.81;73.27
77110;BME280;66062;52.464;16.922;2023-07-31T08:32:34;100081.50;;;19.53;74.89
77110;BME280;66062;52.464;16.922;2023-07-31T08:34:59;100075.13;;;19.99;71.69
77110;BME280;66062;52.464;16.922;2023-07-31T08:37:25;100077.69;;;20.38;71.44
77110;BME280;66062;52.464;16.922;2023-07-31T08:39:50;100071.84;;;19.84;72.33
77110;BME280;66062;52.464;16.922;2023-07-31T08:42:16;100094.81;;;19.09;74.56
77110;BME280;66062;52.464;16.922;2023-07-31T08:44:43;100078.19;;;18.99;76.35
77110;BME280;66062;52.464;16.922;2023-07-31T08:47:08;100086.91;;;18.88;76.99
77110;BME280;66062;52.464;16.922;2023-07-31T08:49:35;100070.44;;;19.35;75.49
77110;BME280;66062;52.464;16.922;2023-07-31T08:52:02;100068.59;;;19.55;74.72
77110;BME280;66062;52.464;16.922;2023-07-31T08:54:29;100067.31;;;19.51;74.96
77110;BME280;66062;52.464;16.922;2023-07-31T08:56:56;100074.41;;;18.73;77.22
77110;BME280;66062;52.464;16.922;2023-07-31T08:59:23;100065.25;;;19.53;73.55
77110;BME280;66062;52.464;16.922;2023-07-31T09:01:52;100064.81;;;19.70;73.52
77110;BME280;66062;52.464;16.922;2023-07-31T09:04:19;100064.56;;;19.78;73.39
77110;BME280;66062;52.464;16.922;2023-07-31T09:06:47;100065.88;;;19.22;74.99
77110;BME280;66062;52.464;16.922;2023-07-31T09:09:13;100062.31;;;19.68;72.50
77110;BME280;66062;52.464;16.922;2023-07-31T09:11:39;100058.81;;;19.48;73.28
77110;BME280;66062;52.464;16.922;2023-07-31T09:14:05;100085.66;;;18.97;75.00
77110;BME280;66062;52.464;16.922;2023-07-31T09:16:34;100061.50;;;19.02;74.95
77110;BME280;66062;52.464;16.922;2023-07-31T09:19:00;100064.84;;;19.04;76.26
77110;BME280;66062;52.464;16.922;2023-07-31T09:21:27;100064.00;;;19.36;74.23
77110;BME280;66062;52.464;16.922;2023-07-31T09:23:54;100062.13;;;19.56;73.75
77110;BME280;66062;52.464;16.922;2023-07-31T09:26:33;100053.19;;;19.16;75.28
77110;BME280;66062;52.464;16.922;2023-07-31T09:29:00;100060.47;;;19.16;75.46
77110;BME280;66062;52.464;16.922;2023-07-31T09:31:34;100074.44;;;19.13;76.19
77110;BME280;66062;52.464;16.922;2023-07-31T09:34:03;100073.34;;;18.14;82.41
77110;BME280;66062;52.464;16.922;2023-07-31T09:36:29;100066.38;;;18.32;83.76
77110;BME280;66062;52.464;16.922;2023-07-31T09:38:56;100061.38;;;18.23;84.69
77110;BME280;66062;52.464;16.922;2023-07-31T09:41:23;100064.50;;;18.33;84.81
77110;BME280;66062;52.464;16.922;2023-07-31T09:43:57;100074.09;;;18.42;84.11
77110;BME280;66062;52.464;16.922;2023-07-31T09:46:27;100071.06;;;18.11;86.43
77110;BME280;66062;52.464;16.922;2023-07-31T09:48:52;100089.47;;;17.87;88.40
77110;BME280;66062;52.464;16.922;2023-07-31T09:51:26;100083.09;;;17.12;95.24
77110;BME280;66062;52.464;16.922;2023-07-31T09:53:52;100082.19;;;17.26;95.56
77110;BME280;66062;52.464;16.922;2023-07-31T09:56:18;100084.00;;;16.97;96.80
77110;BME280;66062;52.464;16.922;2023-07-31T09:58:45;100082.63;;;17.08;99.87
77110;BME280;66062;52.464;16.922;2023-07-31T10:01:10;100079.75;;;17.09;98.83
77110;BME280;66062;52.464;16.922;2023-07-31T10:03:36;100079.41;;;17.19;99.56
77110;BME280;66062;52.464;16.922;2023-07-31T10:06:03;100077.47;;;17.34;98.03
77110;BME280;66062;52.464;16.922;2023-07-31T10:08:30;100069.69;;;17.80;96.78
77110;BME280;66062;52.464;16.922;2023-07-31T10:11:01;100069.28;;;18.44;93.76
77110;BME280;66062;52.464;16.922;2023-07-31T10:13:30;100065.19;;;18.55;91.24
77110;BME280;66062;52.464;16.922;2023-07-31T10:15:59;100071.63;;;18.00;94.63
77110;BME280;66062;52.464;16.922;2023-07-31T10:18:25;100063.63;;;17.78;95.64
77110;BME280;66062;52.464;16.922;2023-07-31T10:20:54;100060.66;;;18.68;92.52
77110;BME280;66062;52.464;16.922;2023-07-31T10:23:20;100065.44;;;18.06;94.07
77110;BME280;66062;52.464;16.922;2023-07-31T10:25:45;100047.69;;;18.37;91.04
77110;BME280;66062;52.464;16.922;2023-07-31T10:28:12;100048.47;;;18.25;93.59
77110;BME280;66062;52.464;16.922;2023-07-31T10:30:38;100047.63;;;18.18;93.48
77110;BME280;66062;52.464;16.922;2023-07-31T10:33:05;100047.19;;;17.67;95.43
77110;BME280;66062;52.464;16.922;2023-07-31T10:35:30;100047.53;;;17.91;97.43
77110;BME280;66062;52.464;16.922;2023-07-31T10:38:09;100035.16;;;18.17;93.81
77110;BME280;66062;52.464;16.922;2023-07-31T10:40:36;100033.09;;;18.25;93.32
77110;BME280;66062;52.464;16.922;2023-07-31T10:43:02;100035.84;;;18.52;90.07
77110;BME280;66062;52.464;16.922;2023-07-31T10:45:32;100031.03;;;18.34;91.12
77110;BME280;66062;52.464;16.922;2023-07-31T10:47:59;100040.16;;;18.26;91.26
77110;BME280;66062;52.464;16.922;2023-07-31T10:50:26;100036.72;;;17.91;93.20
77110;BME280;66062;52.464;16.922;2023-07-31T10:52:53;100029.56;;;18.25;93.26
77110;BME280;66062;52.464;16.922;2023-07-31T10:57:49;100031.41;;;18.24;94.26
77110;BME280;66062;52.464;16.922;2023-07-31T11:00:29;100029.34;;;18.26;93.93
77110;BME280;66062;52.464;16.922;2023-07-31T11:03:15;100035.88;;;17.91;96.09
77110;BME280;66062;52.464;16.922;2023-07-31T11:05:45;100021.47;;;18.18;95.32
77110;BME280;66062;52.464;16.922;2023-07-31T11:08:24;100010.41;;;18.07;94.44
77110;BME280;66062;52.464;16.922;2023-07-31T11:11:05;100021.97;;;17.87;96.62
77110;BME280;66062;52.464;16.922;2023-07-31T11:13:49;100014.00;;;18.40;93.68
77110;BME280;66062;52.464;16.922;2023-07-31T11:16:16;100010.28;;;18.48;93.13
77110;BME280;66062;52.464;16.922;2023-07-31T11:18:43;100002.22;;;19.07;90.28
77110;BME280;66062;52.464;16.922;2023-07-31T11:21:20;99998.06;;;18.85;89.45
77110;BME280;66062;52.464;16.922;2023-07-31T11:23:47;100008.59;;;18.33;93.70
77110;BME280;66062;52.464;16.922;2023-07-31T11:26:12;100002.84;;;18.56;93.78
77110;BME280;66062;52.464;16.922;2023-07-31T11:28:38;100008.97;;;18.17;94.72
77110;BME280;66062;52.464;16.922;2023-07-31T11:31:04;99999.63;;;18.20;95.24
77110;BME280;66062;52.464;16.922;2023-07-31T11:33:30;99991.28;;;18.02;94.61
77110;BME280;66062;52.464;16.922;2023-07-31T11:35:55;99996.50;;;18.16;95.17
77110;BME280;66062;52.464;16.922;2023-07-31T11:38:26;99998.66;;;17.80;97.91
77110;BME280;66062;52.464;16.922;2023-07-31T11:40:53;99984.06;;;17.68;99.50
77110;BME280;66062;52.464;16.922;2023-07-31T11:43:19;99986.66;;;17.82;100.00
77110;BME280;66062;52.464;16.922;2023-07-31T11:45:49;99976.53;;;18.11;97.81
77110;BME280;66062;52.464;16.922;2023-07-31T11:48:35;99978.56;;;17.95;97.21
77110;BME280;66062;52.464;16.922;2023-07-31T11:51:02;99971.69;;;17.93;98.49
77110;BME280;66062;52.464;16.922;2023-07-31T11:53:32;99973.09;;;17.35;100.00
77110;BME280;66062;52.464;16.922;2023-07-31T11:56:01;99984.19;;;17.19;100.00
77110;BME280;66062;52.464;16.922;2023-07-31T11:58:30;99966.66;;;17.36;100.00
77110;BME280;66062;52.464;16.922;2023-07-31T12:01:00;99983.34;;;17.52;100.00
77110;BME280;66062;52.464;16.922;2023-07-31T12:03:26;99978.41;;;17.56;100.00
77110;BME280;66062;52.464;16.922;2023-07-31T12:05:55;99975.97;;;17.68;100.00
77110;BME280;66062;52.464;16.922;2023-07-31T12:08:22;99977.81;;;17.61;100.00
77110;BME280;66062;52.464;16.922;2023-07-31T12:10:50;99980.31;;;18.29;100.00
77110;BME280;66062;52.464;16.922;2023-07-31T12:13:24;99968.66;;;18.16;99.69
77110;BME280;66062;52.464;16.922;2023-07-31T12:15:56;99964.75;;;19.17;94.52
77110;BME280;66062;52.464;16.922;2023-07-31T12:18:27;99964.91;;;19.35;91.38
77110;BME280;66062;52.464;16.922;2023-07-31T12:20:58;99955.41;;;19.00;93.77
77110;BME280;66062;52.464;16.922;2023-07-31T12:23:26;99955.03;;;18.83;92.98
77110;BME280;66062;52.464;16.922;2023-07-31T12:28:26;99951.66;;;19.01;91.47
77110;BME280;66062;52.464;16.922;2023-07-31T12:30:57;99952.94;;;18.78;90.12
77110;BME280;66062;52.464;16.922;2023-07-31T12:33:23;99952.09;;;18.98;89.27
77110;BME280;66062;52.464;16.922;2023-07-31T12:35:49;99951.63;;;19.20;88.24
77110;BME280;66062;52.464;16.922;2023-07-31T12:38:14;99934.94;;;19.30;87.12
77110;BME280;66062;52.464;16.922;2023-07-31T12:40:41;99944.06;;;19.55;86.56